Time;durP1;ratioP1;P1;durP2;ratioP2;P2;SDS_P1;SDS_P2;PMS_P1;PMS_P2;Temp;Humidity;BMP_temperature;BMP_pressure;BME280_temperature;BME280_humidity;BME280_pressure;Samples;Min_cycle;Max_cycle;Signal;HPM_P1;HPM_P2
2024/01/04 00:01:41;;;;;;;4.27;0.80;;;9.60;99.90;;;;;;5061465;28;20514;-92
2024/01/04 00:04:08;;;;;;;10.10;1.87;;;9.60;99.90;;;;;;5057787;28;20489;-92
2024/01/04 00:06:41;;;;;;;4.47;1.10;;;9.60;99.90;;;;;;5057946;28;20559;-91
2024/01/04 00:09:08;;;;;;;3.93;1.40;;;9.60;99.90;;;;;;5058157;28;21349;-92
2024/01/04 00:11:35;;;;;;;8.20;1.37;;;9.60;99.90;;;;;;5056273;28;20480;-88
2024/01/04 00:14:05;;;;;;;3.10;1.77;;;9.50;99.90;;;;;;5060171;28;20522;-93
2024/01/04 00:16:34;;;;;;;5.33;1.60;;;9.50;99.90;;;;;;5058122;28;20487;-91
2024/01/04 00:19:00;;;;;;;9.53;1.20;;;9.60;99.90;;;;;;5055896;28;20499;-92
2024/01/04 00:21:27;;;;;;;8.80;2.30;;;9.60;99.90;;;;;;5054052;28;20498;-92
2024/01/04 00:23:55;;;;;;;7.07;1.73;;;9.50;99.90;;;;;;5062257;28;20988;-92
2024/01/04 00:26:22;;;;;;;10.93;1.50;;;9.60;99.90;;;;;;5059609;28;22161;-91
2024/01/04 00:28:49;;;;;;;7.67;1.40;;;9.60;99.90;;;;;;5062648;28;20471;-92
2024/01/04 00:31:17;;;;;;;13.73;2.10;;;9.60;99.90;;;;;;5058107;28;20514;-93
2024/01/04 00:33:44;;;;;;;15.40;1.43;;;9.70;99.90;;;;;;5057825;28;20528;-92
2024/01/04 00:36:11;;;;;;;5.93;1.87;;;9.60;99.90;;;;;;5064003;28;21758;-92
2024/01/04 00:38:38;;;;;;;5.83;1.57;;;9.70;99.90;;;;;;5059503;28;20542;-92
2024/01/04 00:41:06;;;;;;;5.97;2.40;;;;;;;;;;5061578;28;20978;-91
2024/01/04 00:43:33;;;;;;;2.77;1.23;;;9.70;99.90;;;;;;5044614;28;20490;-93
2024/01/04 00:46:00;;;;;;;6.23;1.43;;;9.60;99.90;;;;;;5032911;28;20537;-92
2024/01/04 00:48:28;;;;;;;3.27;1.73;;;9.70;99.90;;;;;;5056753;28;20481;-93
2024/01/04 00:50:55;;;;;;;10.83;1.83;;;9.70;99.90;;;;;;5039491;28;20848;-92
2024/01/04 00:53:22;;;;;;;6.03;1.70;;;9.70;99.90;;;;;;5046243;28;20475;-93
2024/01/04 00:55:49;;;;;;;5.90;1.33;;;9.70;99.90;;;;;;5062866;28;21167;-92
2024/01/04 00:58:16;;;;;;;3.93;0.90;;;9.70;99.90;;;;;;5061036;28;20482;-93
2024/01/04 01:00:43;;;;;;;2.90;1.13;;;9.70;99.90;;;;;;5061252;28;21054;-91
2024/01/04 01:03:10;;;;;;;2.13;0.70;;;9.70;99.90;;;;;;5054827;28;20518;-91
2024/01/04 01:05:38;;;;;;;15.90;1.50;;;9.70;99.90;;;;;;5060496;28;20466;-92
2024/01/04 01:08:06;;;;;;;3.30;0.80;;;9.70;99.90;;;;;;5041959;28;21157;-93
2024/01/04 01:10:34;;;;;;;3.13;0.90;;;9.70;99.90;;;;;;5046644;28;20475;-92
2024/01/04 01:13:01;;;;;;;8.47;1.30;;;9.70;99.90;;;;;;5048993;28;20959;-92
2024/01/04 01:15:30;;;;;;;6.60;1.33;;;9.70;99.90;;;;;;5051425;28;20476;-92
2024/01/04 01:17:57;;;;;;;2.63;0.87;;;9.70;99.90;;;;;;5055124;28;20472;-91
2024/01/04 01:20:24;;;;;;;6.50;1.80;;;9.70;99.90;;;;;;5057307;28;21182;-90
2024/01/04 01:22:52;;;;;;;2.47;1.00;;;9.80;99.90;;;;;;5051978;28;20475;-92
2024/01/04 01:25:19;;;;;;;6.43;1.03;;;9.80;99.90;;;;;;5066286;28;20517;-91
2024/01/04 01:27:46;;;;;;;7.03;1.23;;;9.80;99.90;;;;;;5063147;28;20476;-92
2024/01/04 01:30:13;;;;;;;1.90;0.80;;;9.80;99.90;;;;;;5060185;28;20484;-93
2024/01/04 01:32:40;;;;;;;6.17;1.30;;;9.70;99.90;;;;;;5062985;28;20463;-91
2024/01/04 01:35:09;;;;;;;9.77;2.80;;;9.80;99.90;;;;;;5061914;28;21131;-91
2024/01/04 01:37:37;;;;;;;1.60;0.90;;;9.80;99.90;;;;;;5059627;28;20471;-91
2024/01/04 01:40:07;;;;;;;17.50;2.17;;;9.70;99.90;;;;;;5051043;28;20479;-90
2024/01/04 01:42:34;;;;;;;1.73;1.00;;;9.70;99.90;;;;;;5055053;28;20551;-92
2024/01/04 01:45:01;;;;;;;4.33;1.03;;;9.80;99.90;;;;;;5052994;28;20483;-92
2024/01/04 01:47:28;;;;;;;3.43;1.10;;;9.80;99.90;;;;;;5054534;28;20476;-91
2024/01/04 01:49:55;;;;;;;2.93;1.00;;;;;;;;;;5056346;28;20475;-92
2024/01/04 01:52:23;;;;;;;1.83;0.70;;;9.70;99.90;;;;;;5051901;28;20560;-92
2024/01/04 01:54:51;;;;;;;5.27;1.03;;;9.70;99.90;;;;;;5065871;28;20529;-93
2024/01/04 01:57:20;;;;;;;4.03;1.30;;;9.70;99.90;;;;;;5057947;28;20480;-90
2024/01/04 01:59:47;;;;;;;5.77;1.10;;;9.60;99.90;;;;;;5058616;28;20563;-91
2024/01/04 02:02:16;;;;;;;7.40;1.40;;;9.70;99.90;;;;;;5062528;28;21054;-92
2024/01/04 02:04:43;;;;;;;4.80;1.47;;;9.70;99.90;;;;;;5062514;28;20487;-90
2024/01/04 02:07:10;;;;;;;5.00;1.10;;;9.80;99.90;;;;;;5057363;28;20486;-92
2024/01/04 02:09:37;;;;;;;11.10;1.67;;;9.80;99.90;;;;;;5065271;28;20476;-90
2024/01/04 02:12:05;;;;;;;2.93;0.97;;;9.80;99.90;;;;;;5061794;28;20870;-91
2024/01/04 02:14:34;;;;;;;6.53;1.40;;;9.80;99.90;;;;;;5062179;28;20779;-92
2024/01/04 02:17:01;;;;;;;2.57;1.10;;;9.80;99.90;;;;;;5070569;28;20536;-92
2024/01/04 02:19:28;;;;;;;9.33;1.40;;;9.80;99.90;;;;;;5056229;28;20492;-92
2024/01/04 02:21:56;;;;;;;4.20;1.87;;;9.80;99.90;;;;;;5062003;28;20491;-91
2024/01/04 02:24:25;;;;;;;4.17;1.23;;;;;;;;;;5060927;28;20480;-92
2024/01/04 02:26:52;;;;;;;7.93;1.17;;;9.80;99.90;;;;;;5069472;28;20490;-90
2024/01/04 02:29:19;;;;;;;11.00;1.47;;;9.80;99.90;;;;;;5062202;28;20474;-93
2024/01/04 02:31:47;;;;;;;2.23;1.20;;;9.70;99.90;;;;;;5061856;28;20475;-91
2024/01/04 02:34:14;;;;;;;3.50;1.03;;;9.70;99.90;;;;;;5048521;28;20471;-92
2024/01/04 02:36:41;;;;;;;4.63;1.10;;;9.80;99.90;;;;;;5060776;28;20479;-93
2024/01/04 02:39:10;;;;;;;3.10;1.40;;;9.80;99.90;;;;;;5059940;28;20472;-92
2024/01/04 02:41:38;;;;;;;4.63;1.20;;;9.70;99.90;;;;;;5059133;28;20524;-91
2024/01/04 02:44:05;;;;;;;8.33;1.03;;;9.80;99.90;;;;;;5055128;28;20459;-91
2024/01/04 02:46:32;;;;;;;1.70;1.07;;;9.70;99.90;;;;;;5077170;28;20483;-93
2024/01/04 02:48:59;;;;;;;8.20;2.07;;;9.70;99.90;;;;;;5063345;28;20479;-91
2024/01/04 02:51:26;;;;;;;3.67;1.57;;;9.70;99.90;;;;;;5064563;28;20814;-91
2024/01/04 02:53:53;;;;;;;3.57;1.33;;;9.80;99.90;;;;;;5061990;28;21013;-92
2024/01/04 02:56:20;;;;;;;6.97;1.30;;;9.80;99.90;;;;;;5055002;28;20896;-91
2024/01/04 02:58:48;;;;;;;4.63;1.07;;;9.80;99.90;;;;;;5059322;28;20535;-91
2024/01/04 03:01:19;;;;;;;7.03;2.00;;;9.80;99.90;;;;;;5053605;28;20471;-92
2024/01/04 03:03:46;;;;;;;3.90;1.00;;;9.80;99.90;;;;;;5044014;28;20539;-92
2024/01/04 03:06:13;;;;;;;11.87;1.70;;;9.80;99.90;;;;;;5059008;28;20471;-91
2024/01/04 03:08:40;;;;;;;5.67;1.70;;;9.80;99.90;;;;;;5048753;28;20472;-91
2024/01/04 03:11:07;;;;;;;4.50;1.63;;;9.80;99.90;;;;;;5065661;28;20489;-93
2024/01/04 03:13:34;;;;;;;12.73;1.20;;;9.90;99.90;;;;;;5057377;28;20483;-91
2024/01/04 03:16:02;;;;;;;3.20;1.40;;;9.80;99.90;;;;;;5057693;28;20902;-92
2024/01/04 03:18:29;;;;;;;11.03;1.63;;;9.90;99.90;;;;;;5064288;28;20483;-91
2024/01/04 03:20:56;;;;;;;8.13;1.93;;;9.80;99.90;;;;;;5056039;28;21137;-90
2024/01/04 03:23:23;;;;;;;8.93;1.33;;;9.80;99.90;;;;;;5055904;28;20479;-92
2024/01/04 03:25:50;;;;;;;8.40;1.30;;;9.80;99.90;;;;;;5061252;28;20471;-93
2024/01/04 03:28:17;;;;;;;3.33;0.83;;;9.70;99.90;;;;;;5056623;28;20550;-93
2024/01/04 03:30:44;;;;;;;14.63;1.80;;;9.80;99.90;;;;;;5062168;28;20572;-92
2024/01/04 03:33:12;;;;;;;9.67;1.30;;;9.80;99.90;;;;;;5064074;28;20527;-92
2024/01/04 03:35:39;;;;;;;6.63;1.20;;;9.70;99.90;;;;;;5055123;28;20494;-93
2024/01/04 03:38:06;;;;;;;6.90;2.13;;;9.70;99.90;;;;;;5060433;28;20483;-91
2024/01/04 03:40:33;;;;;;;6.37;1.47;;;9.70;99.90;;;;;;5057752;28;20522;-92
2024/01/04 03:43:00;;;;;;;7.53;1.47;;;9.80;99.90;;;;;;5058615;28;20476;-92
2024/01/04 03:45:28;;;;;;;8.50;1.40;;;9.70;99.90;;;;;;5066462;28;20867;-92
2024/01/04 03:47:55;;;;;;;11.67;2.13;;;9.70;99.90;;;;;;5051926;28;20479;-92
2024/01/04 03:50:23;;;;;;;6.47;2.03;;;9.60;99.90;;;;;;5070346;28;20973;-90
2024/01/04 03:52:50;;;;;;;8.53;2.03;;;9.60;99.90;;;;;;5058637;28;20483;-94
2024/01/04 03:55:19;;;;;;;10.47;2.57;;;9.70;99.90;;;;;;5065783;28;20524;-92
2024/01/04 03:57:46;;;;;;;12.57;1.70;;;9.70;99.90;;;;;;5057370;28;20482;-91
2024/01/04 04:00:14;;;;;;;4.70;1.63;;;9.70;99.90;;;;;;5064869;28;20490;-94
2024/01/04 04:02:41;;;;;;;3.93;0.93;;;9.60;99.90;;;;;;5061316;28;21187;-93
2024/01/04 04:05:08;;;;;;;8.33;2.63;;;9.70;99.90;;;;;;5058253;28;20475;-93
2024/01/04 04:07:37;;;;;;;8.03;2.03;;;9.60;99.90;;;;;;5066087;28;20501;-92
2024/01/04 04:10:04;;;;;;;5.50;1.20;;;9.60;99.90;;;;;;5070279;28;20531;-93
2024/01/04 04:12:31;;;;;;;15.97;1.53;;;9.60;99.90;;;;;;5054382;28;20484;-93
2024/01/04 04:14:58;;;;;;;9.90;3.27;;;9.60;99.90;;;;;;5063956;28;20482;-92
2024/01/04 04:17:25;;;;;;;5.83;2.70;;;9.60;99.90;;;;;;5058298;28;20490;-92
2024/01/04 04:19:52;;;;;;;9.03;1.23;;;9.50;99.90;;;;;;5068674;28;21058;-94
2024/01/04 04:22:19;;;;;;;3.83;2.07;;;9.60;99.90;;;;;;5058227;28;20552;-93
2024/01/04 04:24:48;;;;;;;5.03;1.37;;;9.60;99.90;;;;;;5052058;28;21087;-94
2024/01/04 04:27:17;;;;;;;7.13;1.63;;;9.50;99.90;;;;;;5062774;28;20559;-93
2024/01/04 04:29:45;;;;;;;9.93;1.47;;;9.60;99.90;;;;;;5060123;28;20978;-93
2024/01/04 04:32:12;;;;;;;5.30;1.33;;;9.60;99.90;;;;;;5059945;28;20482;-93
2024/01/04 04:34:39;;;;;;;9.07;2.50;;;9.60;99.90;;;;;;5065592;28;20865;-94
2024/01/04 04:37:06;;;;;;;8.83;1.80;;;9.50;99.90;;;;;;5058705;28;20478;-95
2024/01/04 04:39:33;;;;;;;30.60;3.20;;;9.60;99.90;;;;;;5069161;28;20494;-93
2024/01/04 04:42:02;;;;;;;9.87;1.87;;;9.50;99.90;;;;;;5060188;28;20841;-93
2024/01/04 04:44:29;;;;;;;12.30;3.73;;;9.50;99.90;;;;;;5062731;28;20498;-93
2024/01/04 04:46:57;;;;;;;17.27;1.93;;;9.40;99.90;;;;;;5058391;28;20490;-90
2024/01/04 04:49:24;;;;;;;9.83;2.00;;;9.50;99.90;;;;;;5064379;28;20467;-93
2024/01/04 04:51:51;;;;;;;10.67;2.90;;;9.50;99.90;;;;;;5058193;28;20477;-93
2024/01/04 04:54:18;;;;;;;3.63;1.30;;;9.40;99.90;;;;;;5066226;28;20480;-93
2024/01/04 04:56:45;;;;;;;4.73;1.70;;;9.40;99.90;;;;;;5065469;28;20477;-93
2024/01/04 04:59:15;;;;;;;2.30;1.40;;;9.40;99.90;;;;;;5057635;28;20506;-91
2024/01/04 05:01:43;;;;;;;23.40;3.30;;;9.40;99.90;;;;;;5066631;28;20479;-93
2024/01/04 05:04:10;;;;;;;5.20;2.03;;;9.40;99.90;;;;;;5069270;28;20483;-93
2024/01/04 05:06:37;;;;;;;8.10;1.80;;;9.50;99.90;;;;;;5069700;28;20482;-92
2024/01/04 05:09:04;;;;;;;11.23;2.27;;;9.50;99.90;;;;;;5068922;28;20846;-92
2024/01/04 05:11:31;;;;;;;7.77;2.50;;;9.50;99.90;;;;;;5070102;28;20537;-92
2024/01/04 05:13:58;;;;;;;3.30;1.40;;;;;;;;;;5065000;28;20482;-92
2024/01/04 05:16:26;;;;;;;10.07;3.27;;;9.60;99.90;;;;;;5077149;28;20555;-92
2024/01/04 05:18:53;;;;;;;11.57;2.27;;;9.50;99.90;;;;;;5058063;28;20471;-92
2024/01/04 05:21:20;;;;;;;8.40;2.60;;;9.50;99.90;;;;;;5062388;28;21429;-91
2024/01/04 05:23:47;;;;;;;4.27;1.70;;;9.50;99.90;;;;;;5059108;28;20465;-92
2024/01/04 05:26:21;;;;;;;8.87;2.87;;;9.50;99.90;;;;;;5070101;28;20482;-92
2024/01/04 05:28:48;;;;;;;3.90;1.90;;;9.40;99.90;;;;;;5059132;28;20476;-93
2024/01/04 05:31:18;;;;;;;3.70;1.73;;;9.50;99.90;;;;;;5064113;28;20490;-92
2024/01/04 05:33:47;;;;;;;7.97;2.33;;;9.50;99.90;;;;;;5057349;28;20499;-93
2024/01/04 05:36:14;;;;;;;6.93;2.13;;;;;;;;;;5056454;28;20487;-93
2024/01/04 05:38:41;;;;;;;6.57;1.70;;;9.40;99.90;;;;;;5061975;28;20529;-93
2024/01/04 05:41:08;;;;;;;6.80;1.40;;;9.40;99.90;;;;;;5065179;28;20818;-93
2024/01/04 05:43:35;;;;;;;7.50;1.43;;;9.40;99.90;;;;;;5050279;28;20514;-93
2024/01/04 05:46:04;;;;;;;11.10;1.50;;;9.40;99.90;;;;;;5068657;28;20474;-93
2024/01/04 05:48:31;;;;;;;14.80;2.00;;;9.40;99.90;;;;;;5047682;28;20477;-93
2024/01/04 05:50:59;;;;;;;3.00;1.37;;;9.30;99.90;;;;;;5075253;28;20999;-93
2024/01/04 05:53:27;;;;;;;5.50;1.77;;;;;;;;;;5067047;28;20972;-93
2024/01/04 05:55:54;;;;;;;7.90;1.40;;;9.20;99.90;;;;;;5059743;28;20479;-92
2024/01/04 05:58:21;;;;;;;13.40;2.00;;;9.20;99.90;;;;;;5063250;28;20998;-93
2024/01/04 06:00:48;;;;;;;5.83;1.90;;;9.20;99.90;;;;;;5057280;28;20476;-93
2024/01/04 06:03:16;;;;;;;4.27;1.67;;;9.20;99.90;;;;;;5049879;28;20486;-93
2024/01/04 06:05:43;;;;;;;2.80;1.50;;;9.10;99.90;;;;;;5076379;28;20503;-93
2024/01/04 06:08:12;;;;;;;5.03;1.30;;;9.20;99.90;;;;;;5055077;28;20475;-93
2024/01/04 06:10:39;;;;;;;8.47;2.30;;;9.10;99.90;;;;;;5064079;28;20534;-95
2024/01/04 06:13:07;;;;;;;5.30;1.70;;;9.20;99.90;;;;;;5062547;28;20482;-93
2024/01/04 06:15:34;;;;;;;16.33;3.43;;;9.20;99.90;;;;;;5064166;28;20483;-92
2024/01/04 06:18:01;;;;;;;8.33;1.70;;;9.10;99.90;;;;;;5062646;28;20490;-92
2024/01/04 06:20:28;;;;;;;5.10;1.37;;;;;;;;;;5061882;28;20559;-93
2024/01/04 06:22:55;;;;;;;8.50;1.53;;;9.20;99.90;;;;;;5060733;28;20996;-94
2024/01/04 06:25:24;;;;;;;10.83;1.37;;;9.20;99.90;;;;;;5057961;28;20490;-94
2024/01/04 06:27:51;;;;;;;7.73;1.13;;;9.10;99.90;;;;;;5052465;28;20487;-92
2024/01/04 06:30:18;;;;;;;7.53;2.20;;;9.10;99.90;;;;;;5057312;28;20486;-93
2024/01/04 06:32:45;;;;;;;11.10;2.20;;;9.10;99.90;;;;;;5067029;28;20502;-94
2024/01/04 06:35:13;;;;;;;3.60;1.43;;;9.10;99.90;;;;;;5057966;28;20879;-93
2024/01/04 06:37:40;;;;;;;6.30;2.10;;;9.10;99.90;;;;;;5059419;28;20480;-94
2024/01/04 06:40:10;;;;;;;11.70;1.93;;;9.10;99.90;;;;;;5067230;28;20510;-94
2024/01/04 06:42:39;;;;;;;18.70;2.67;;;;;;;;;;5065145;28;20492;-93
2024/01/04 06:45:06;;;;;;;16.97;3.27;;;9.10;99.90;;;;;;5059765;28;21010;-93
2024/01/04 06:47:34;;;;;;;9.17;1.77;;;9.10;99.90;;;;;;5072157;28;20472;-93
2024/01/04 06:50:01;;;;;;;10.07;2.00;;;9.10;99.90;;;;;;5058693;28;20876;-90
2024/01/04 06:52:28;;;;;;;18.90;2.53;;;9.10;99.90;;;;;;5062832;28;20901;-89
2024/01/04 06:54:55;;;;;;;6.37;1.43;;;9.20;99.90;;;;;;5056242;28;20482;-89
2024/01/04 06:57:22;;;;;;;13.43;2.70;;;9.20;99.90;;;;;;5066181;28;21148;-89
2024/01/04 06:59:53;;;;;;;6.20;2.13;;;9.20;99.90;;;;;;5056016;28;21158;-89
2024/01/04 07:02:20;;;;;;;6.33;2.20;;;9.20;99.90;;;;;;5073665;28;20479;-89
2024/01/04 07:04:47;;;;;;;8.50;1.70;;;9.20;99.90;;;;;;5052581;28;20566;-89
2024/01/04 07:07:14;;;;;;;6.83;2.07;;;9.10;99.90;;;;;;5046465;28;20478;-90
2024/01/04 07:09:41;;;;;;;5.93;1.70;;;9.20;99.90;;;;;;5055225;28;20486;-90
2024/01/04 07:12:08;;;;;;;9.63;2.03;;;;;;;;;;5055593;28;20471;-88
2024/01/04 07:14:38;;;;;;;12.73;2.23;;;9.10;99.90;;;;;;5054167;28;20481;-89
2024/01/04 07:17:08;;;;;;;8.90;2.00;;;9.20;99.90;;;;;;5058632;28;20476;-88
2024/01/04 07:19:35;;;;;;;7.30;1.97;;;9.00;99.90;;;;;;5049030;28;20475;-90
2024/01/04 07:22:02;;;;;;;7.67;2.13;;;9.10;99.90;;;;;;5061989;28;20475;-90
2024/01/04 07:24:29;;;;;;;18.80;2.90;;;9.10;99.90;;;;;;5056424;28;20466;-90
2024/01/04 07:26:56;;;;;;;17.70;2.40;;;9.10;99.90;;;;;;5062369;28;20536;-90
2024/01/04 07:29:31;;;;;;;9.70;1.80;;;9.10;99.90;;;;;;5060076;28;20479;-89
2024/01/04 07:31:58;;;;;;;9.33;1.50;;;9.10;99.90;;;;;;5054466;28;20491;-89
2024/01/04 07:34:27;;;;;;;11.47;1.80;;;9.10;99.90;;;;;;5064522;28;21242;-89
2024/01/04 07:36:54;;;;;;;14.50;2.40;;;9.10;99.90;;;;;;5059685;28;20965;-89
2024/01/04 07:39:21;;;;;;;13.47;2.30;;;9.10;99.90;;;;;;5055370;28;20472;-90
2024/01/04 07:41:48;;;;;;;12.90;2.33;;;9.10;99.90;;;;;;5060839;28;20495;-89
2024/01/04 07:44:15;;;;;;;9.43;2.60;;;9.20;99.90;;;;;;5062741;28;20549;-90
2024/01/04 07:46:42;;;;;;;7.87;1.53;;;9.10;99.90;;;;;;5063170;28;20841;-90
2024/01/04 07:49:09;;;;;;;5.93;3.33;;;9.10;99.90;;;;;;5060834;28;20544;-88
2024/01/04 07:51:38;;;;;;;18.00;2.77;;;;;;;;;;5054735;28;20549;-88
2024/01/04 07:54:06;;;;;;;10.80;2.73;;;9.00;99.90;;;;;;5052696;28;20483;-90
2024/01/04 07:56:32;;;;;;;6.07;2.20;;;9.00;99.90;;;;;;5056867;28;20467;-90
2024/01/04 07:58:59;;;;;;;11.70;2.10;;;9.10;99.90;;;;;;5057931;28;20483;-90
2024/01/04 08:01:26;;;;;;;7.77;3.03;;;9.00;99.90;;;;;;5045797;28;20490;-90
2024/01/04 08:03:53;;;;;;;28.37;4.40;;;9.10;99.90;;;;;;5062640;28;20483;-90
2024/01/04 08:06:20;;;;;;;15.07;1.73;;;9.10;99.90;;;;;;5060439;28;20478;-89
2024/01/04 08:08:48;;;;;;;9.03;1.70;;;9.20;99.90;;;;;;5058181;28;20483;-88
2024/01/04 08:11:15;;;;;;;11.87;3.03;;;9.30;99.90;;;;;;5059284;28;20487;-88
2024/01/04 08:13:42;;;;;;;13.53;2.00;;;9.30;99.90;;;;;;5058737;28;20993;-87
2024/01/04 08:16:09;;;;;;;6.83;1.80;;;9.30;99.90;;;;;;5051078;28;20498;-87
2024/01/04 08:18:37;;;;;;;6.70;1.73;;;9.40;99.90;;;;;;5071369;28;20594;-87
2024/01/04 08:21:05;;;;;;;5.33;1.23;;;9.50;99.90;;;;;;5058574;28;20482;-90
2024/01/04 08:23:32;;;;;;;4.47;2.03;;;9.40;99.90;;;;;;5062129;28;20474;-88
2024/01/04 08:26:05;;;;;;;19.80;2.53;;;9.30;99.90;;;;;;5067433;28;20474;-87
2024/01/04 08:28:32;;;;;;;13.23;2.93;;;9.40;99.90;;;;;;5063037;28;20521;-89
2024/01/04 08:30:59;;;;;;;10.70;1.73;;;9.30;99.90;;;;;;5060835;28;20498;-89
2024/01/04 08:33:29;;;;;;;12.80;2.10;;;9.30;99.90;;;;;;5056680;28;20483;-87
2024/01/04 08:35:56;;;;;;;3.90;1.50;;;9.30;99.90;;;;;;5063717;28;20482;-90
2024/01/04 08:38:23;;;;;;;5.00;1.43;;;9.40;99.90;;;;;;5058348;28;20474;-88
2024/01/04 08:40:50;;;;;;;13.63;2.80;;;9.40;99.90;;;;;;5057864;28;20491;-88
2024/01/04 08:43:18;;;;;;;5.90;1.83;;;9.40;99.90;;;;;;5063025;28;20475;-88
2024/01/04 08:45:45;;;;;;;5.77;2.00;;;9.40;99.90;;;;;;5061807;28;20532;-88
2024/01/04 08:48:12;;;;;;;12.47;2.33;;;9.40;99.90;;;;;;5050630;28;20472;-88
2024/01/04 08:50:40;;;;;;;6.03;2.40;;;9.30;99.90;;;;;;5056985;28;20921;-88
2024/01/04 08:53:07;;;;;;;14.20;2.47;;;9.40;99.90;;;;;;5057925;28;20980;-89
2024/01/04 08:55:34;;;;;;;13.43;2.40;;;9.40;99.90;;;;;;5053893;28;20478;-87
2024/01/04 08:58:02;;;;;;;9.40;2.83;;;9.40;99.90;;;;;;5054426;28;20489;-87
2024/01/04 09:00:32;;;;;;;23.23;2.63;;;9.40;99.90;;;;;;5062363;28;20511;-88
2024/01/04 09:02:59;;;;;;;4.80;1.63;;;9.40;99.90;;;;;;5055422;28;20494;-87
2024/01/04 09:05:26;;;;;;;17.57;3.40;;;9.50;99.90;;;;;;5057191;28;20514;-88
2024/01/04 09:07:55;;;;;;;7.27;2.07;;;9.50;99.90;;;;;;5040697;28;20987;-86
2024/01/04 09:10:22;;;;;;;14.37;2.40;;;9.50;99.90;;;;;;5065859;28;20471;-86
2024/01/04 09:12:51;;;;;;;6.20;1.93;;;9.50;99.90;;;;;;5057140;28;20999;-88
2024/01/04 09:15:18;;;;;;;8.27;1.70;;;9.50;99.90;;;;;;5058231;28;20591;-88
2024/01/04 09:17:47;;;;;;;7.23;1.63;;;9.60;99.90;;;;;;5057916;28;20472;-86
2024/01/04 09:20:14;;;;;;;4.77;1.97;;;9.70;99.90;;;;;;5066117;28;20475;-88
2024/01/04 09:22:41;;;;;;;16.73;2.60;;;9.80;99.90;;;;;;5050864;28;20484;-88
2024/01/04 09:25:08;;;;;;;11.10;2.20;;;9.90;99.90;;;;;;5061982;28;20467;-86
2024/01/04 09:27:35;;;;;;;1.97;0.90;;;;;;;;;;5058798;28;20471;-86
2024/01/04 09:30:03;;;;;;;3.73;1.30;;;;;;;;;;5066479;28;20490;-89
2024/01/04 09:32:30;;;;;;;5.33;2.10;;;9.80;99.90;;;;;;5058693;28;20484;-86
2024/01/04 09:34:58;;;;;;;21.47;2.93;;;9.90;99.90;;;;;;5065751;28;20491;-86
2024/01/04 09:37:25;;;;;;;3.73;1.07;;;9.80;99.90;;;;;;5062732;28;20493;-86
2024/01/04 09:39:52;;;;;;;12.50;1.90;;;9.80;99.90;;;;;;5059536;28;20544;-87
2024/01/04 09:42:23;;;;;;;7.23;1.70;;;9.90;99.90;;;;;;5053546;28;20491;-87
2024/01/04 09:44:54;;;;;;;11.23;2.37;;;9.90;99.90;;;;;;5056019;28;20472;-87
2024/01/04 09:47:24;;;;;;;6.27;2.03;;;10.00;99.90;;;;;;5061050;28;20530;-88
2024/01/04 09:49:52;;;;;;;10.57;1.80;;;10.00;99.90;;;;;;5060306;28;20476;-87
2024/01/04 09:52:23;;;;;;;6.00;1.40;;;10.00;99.90;;;;;;5055035;28;20487;-87
2024/01/04 09:54:52;;;;;;;16.80;1.87;;;10.10;99.90;;;;;;5054906;28;20483;-88
2024/01/04 09:57:20;;;;;;;5.57;1.80;;;10.10;99.90;;;;;;5060258;28;20476;-90
2024/01/04 09:59:47;;;;;;;4.40;1.63;;;10.20;99.90;;;;;;5060339;28;21140;-87
2024/01/04 10:02:16;;;;;;;12.93;2.43;;;;;;;;;;5048614;28;20472;-86
2024/01/04 10:04:45;;;;;;;13.00;2.67;;;10.30;99.90;;;;;;5056090;28;21003;-86
2024/01/04 10:07:20;;;;;;;5.50;1.47;;;10.30;99.90;;;;;;5058364;28;20481;-86
2024/01/04 10:09:57;;;;;;;3.83;2.27;;;10.30;99.90;;;;;;5054272;28;20510;-89
2024/01/04 10:12:28;;;;;;;4.03;1.27;;;10.20;99.90;;;;;;5057623;28;20467;-86
2024/01/04 10:14:55;;;;;;;4.40;1.60;;;10.20;99.90;;;;;;5061615;28;20483;-87
2024/01/04 10:17:22;;;;;;;1.73;0.93;;;10.20;99.90;;;;;;5042116;28;20479;-88
2024/01/04 10:19:49;;;;;;;5.63;2.20;;;10.40;99.90;;;;;;5080912;28;20471;-87
2024/01/04 10:22:21;;;;;;;9.83;2.40;;;10.40;99.90;;;;;;5055305;28;20968;-87
2024/01/04 10:24:51;;;;;;;4.80;1.03;;;10.40;99.90;;;;;;5058346;28;20541;-86
2024/01/04 10:27:18;;;;;;;3.27;1.20;;;10.40;99.90;;;;;;5056425;28;21046;-88
2024/01/04 10:29:51;;;;;;;9.13;1.20;;;10.40;99.90;;;;;;5065272;28;20479;-88
2024/01/04 10:32:18;;;;;;;24.77;3.40;;;10.30;99.90;;;;;;5059138;28;21053;-88
2024/01/04 10:34:45;;;;;;;11.80;1.73;;;10.20;99.90;;;;;;5046441;28;20713;-87
2024/01/04 10:37:13;;;;;;;10.23;1.60;;;10.30;99.90;;;;;;5054552;28;20474;-88
2024/01/04 10:39:45;;;;;;;5.10;1.43;;;10.30;99.90;;;;;;5061499;28;20474;-87
2024/01/04 10:42:15;;;;;;;9.73;1.57;;;10.40;99.90;;;;;;5066454;28;20524;-88
2024/01/04 10:44:45;;;;;;;8.57;2.47;;;10.60;99.90;;;;;;5047824;28;23373;-88
2024/01/04 10:47:14;;;;;;;6.13;1.20;;;10.60;99.90;;;;;;5066443;28;20532;-88
2024/01/04 10:49:43;;;;;;;6.80;2.40;;;10.70;99.90;;;;;;5058436;28;20467;-87
2024/01/04 10:52:15;;;;;;;17.67;1.77;;;10.70;99.90;;;;;;5062543;28;20542;-87
2024/01/04 10:54:43;;;;;;;14.53;1.97;;;10.70;99.90;;;;;;5058474;28;20502;-88
2024/01/04 10:57:11;;;;;;;9.17;1.80;;;10.60;99.90;;;;;;5054102;28;20487;-86
2024/01/04 10:59:43;;;;;;;18.03;3.27;;;10.60;99.90;;;;;;5055192;28;20479;-87
2024/01/04 11:02:12;;;;;;;4.70;1.70;;;10.50;99.90;;;;;;5059843;28;20492;-88
2024/01/04 11:04:41;;;;;;;9.23;2.07;;;10.50;99.90;;;;;;5054210;28;20488;-87
2024/01/04 11:07:09;;;;;;;5.27;1.30;;;10.50;99.90;;;;;;5051138;28;20479;-88
2024/01/04 11:09:36;;;;;;;5.10;1.87;;;10.50;99.90;;;;;;5057378;28;20898;-88
2024/01/04 11:12:05;;;;;;;15.47;5.07;;;;;;;;;;5054344;28;20483;-88
2024/01/04 11:14:32;;;;;;;5.90;1.40;;;10.80;99.90;;;;;;5060234;28;20483;-88
2024/01/04 11:17:18;;;;;;;27.37;2.60;;;10.90;99.90;;;;;;5052388;28;20482;-87
2024/01/04 11:20:02;;;;;;;7.53;1.60;;;10.90;99.90;;;;;;5051949;28;20490;-87
2024/01/04 11:22:48;;;;;;;5.73;2.40;;;10.90;99.90;;;;;;5050642;28;20477;-88
2024/01/04 11:25:31;;;;;;;17.53;2.60;;;10.60;99.90;;;;;;5047314;28;20486;-86
2024/01/04 11:27:59;;;;;;;6.30;1.53;;;10.50;99.90;;;;;;5055952;28;20471;-89
2024/01/04 11:30:26;;;;;;;16.83;2.07;;;10.40;99.90;;;;;;5055582;28;20969;-90
2024/01/04 11:32:55;;;;;;;2.83;0.90;;;10.40;99.90;;;;;;5061057;28;20793;-89
2024/01/04 11:35:22;;;;;;;10.00;2.10;;;10.20;99.90;;;;;;5057965;28;20945;-88
2024/01/04 11:37:51;;;;;;;5.47;1.70;;;10.10;99.90;;;;;;5046069;28;20479;-88
2024/01/04 11:40:25;;;;;;;13.90;2.57;;;10.20;99.90;;;;;;5057581;28;20488;-89
2024/01/04 11:42:52;;;;;;;8.93;3.60;;;10.30;99.90;;;;;;5055622;28;20506;-89
2024/01/04 11:45:20;;;;;;;11.17;2.67;;;10.30;99.90;;;;;;5058893;28;21721;-89
2024/01/04 11:47:50;;;;;;;12.43;2.23;;;10.10;99.90;;;;;;5051482;28;20479;-88
2024/01/04 11:50:25;;;;;;;7.47;3.17;;;10.10;99.90;;;;;;5057659;28;20481;-89
2024/01/04 11:52:52;;;;;;;5.93;1.60;;;10.30;99.90;;;;;;5055904;28;20479;-89
2024/01/04 11:55:26;;;;;;;11.70;2.70;;;10.20;99.90;;;;;;5064962;28;20459;-88
2024/01/04 11:58:04;;;;;;;4.60;1.80;;;10.30;99.90;;;;;;5043474;28;20522;-88
2024/01/04 12:00:33;;;;;;;11.33;1.87;;;10.30;99.90;;;;;;5051425;28;21211;-89
2024/01/04 12:03:02;;;;;;;8.90;2.33;;;10.20;99.90;;;;;;5046725;28;20484;-88
2024/01/04 12:05:30;;;;;;;7.83;2.53;;;10.20;99.90;;;;;;5057200;28;20540;-88
2024/01/04 12:07:57;;;;;;;9.23;1.73;;;10.30;99.90;;;;;;5063505;28;20482;-90
2024/01/04 12:10:24;;;;;;;7.07;1.83;;;10.30;99.90;;;;;;5047080;28;20472;-89
2024/01/04 12:12:51;;;;;;;7.67;2.40;;;10.30;99.90;;;;;;5057100;28;20474;-89
2024/01/04 12:15:20;;;;;;;8.73;1.93;;;10.20;99.90;;;;;;5055672;28;20811;-89
2024/01/04 12:17:47;;;;;;;7.40;2.90;;;10.20;99.90;;;;;;5060018;28;20490;-89
2024/01/04 12:20:14;;;;;;;14.20;2.00;;;10.20;99.90;;;;;;5064018;28;20540;-89
2024/01/04 12:22:43;;;;;;;12.33;2.90;;;10.20;99.90;;;;;;5056729;28;20484;-88
2024/01/04 12:25:10;;;;;;;7.10;1.70;;;10.20;99.90;;;;;;5055076;28;20463;-90
2024/01/04 12:27:39;;;;;;;22.67;4.23;;;10.10;99.90;;;;;;5059597;28;21219;-89
2024/01/04 12:30:08;;;;;;;6.50;1.57;;;10.00;99.90;;;;;;5048690;28;20537;-89
2024/01/04 12:32:35;;;;;;;20.10;2.90;;;10.10;99.90;;;;;;5059257;28;20482;-87
2024/01/04 12:35:03;;;;;;;8.10;1.43;;;10.10;99.90;;;;;;5054314;28;20487;-89
2024/01/04 12:37:30;;;;;;;7.73;1.50;;;10.20;99.90;;;;;;5062590;28;20562;-87
2024/01/04 12:40:07;;;;;;;11.83;1.90;;;10.20;99.90;;;;;;5044876;28;20475;-89
2024/01/04 12:42:34;;;;;;;12.03;1.67;;;10.20;99.90;;;;;;5053343;28;21342;-87
2024/01/04 12:45:02;;;;;;;10.60;2.23;;;10.30;99.90;;;;;;5054923;28;20487;-87
2024/01/04 12:47:31;;;;;;;9.67;1.87;;;10.30;99.90;;;;;;5069739;28;20474;-88
2024/01/04 12:49:58;;;;;;;12.43;2.00;;;10.30;99.90;;;;;;5062782;28;20476;-87
2024/01/04 12:52:25;;;;;;;25.63;3.07;;;10.30;99.90;;;;;;5064276;28;20475;-87
2024/01/04 12:54:52;;;;;;;9.73;2.90;;;10.20;99.90;;;;;;5049442;28;20510;-87
2024/01/04 12:57:22;;;;;;;10.03;1.97;;;10.30;99.90;;;;;;5054033;28;20495;-87
2024/01/04 12:59:48;;;;;;;14.00;3.70;;;10.40;99.90;;;;;;5057819;28;20474;-87